Time;durP1;ratioP1;P1;durP2;ratioP2;P2;SDS_P1;SDS_P2;PMS_P1;PMS_P2;Temp;Humidity;BMP_temperature;BMP_pressure;BME280_temperature;BME280_humidity;BME280_pressure;Samples;Min_cycle;Max_cycle;Signal;HPM_P1;HPM_P2
2022/09/02 00:02:16;;;;;;;;;;;;;;;;;;5015418;28;19970;-27
2022/09/02 00:04:42;;;;;;;;;;;;;;;;;;5015431;28;19957;-27
2022/09/02 00:07:08;;;;;;;;;;;;;;;;;;5015994;28;19967;-26
2022/09/02 00:09:37;;;;;;;;;;;;;;;;;;5014946;28;20143;-27
2022/09/02 00:12:04;;;;;;;;;;;;;;;;;;5015344;28;19914;-27
2022/09/02 00:14:30;;;;;;;;;;;;;;;;;;5015413;28;19906;-26
2022/09/02 00:16:59;;;;;;;;;;;;;;;;;;5015593;28;20020;-26
2022/09/02 00:19:25;;;;;;;;;;;;;;;;;;5015272;28;20213;-27
2022/09/02 00:21:51;;;;;;;;;;;;;;;;;;5015213;28;19928;-27
2022/09/02 00:24:17;;;;;;;;;;;;;;;;;;5015243;28;19909;-27
2022/09/02 00:26:43;;;;;;;;;;;;;;;;;;5015802;28;19968;-27
2022/09/02 00:29:09;;;;;;;;;;;;;;;;;;5015260;28;19918;-26
2022/09/02 00:31:35;;;;;;;;;;;;;;;;;;5015461;28;19914;-26
2022/09/02 00:34:01;;;;;;;;;;;;;;;;;;5015075;28;20412;-26
2022/09/02 00:36:27;;;;;;;;;;;;;;;;;;5015165;28;19971;-26
2022/09/02 00:38:53;;;;;;;;;;;;;;;;;;5015127;28;20033;-26
2022/09/02 00:41:19;;;;;;;;;;;;;;;;;;5016617;28;19926;-26
2022/09/02 00:43:45;;;;;;;;;;;;;;;;;;5018983;28;20252;-26
2022/09/02 00:46:11;;;;;;;;;;;;;;;;;;5019029;28;20032;-26
2022/09/02 00:48:37;;;;;;;;;;;;;;;;;;5019209;28;20383;-26
2022/09/02 00:51:03;;;;;;;;;;;;;;;;;;5018822;28;20292;-26
2022/09/02 00:53:29;;;;;;;;;;;;;;;;;;5019065;28;20012;-26
2022/09/02 00:55:55;;;;;;;;;;;;;;;;;;5018883;28;19909;-26
2022/09/02 00:58:21;;;;;;;;;;;;;;;;;;5018720;28;19913;-26
2022/09/02 01:00:47;;;;;;;;;;;;;;;;;;5018665;28;19914;-26
2022/09/02 01:03:13;;;;;;;;;;;;;;;;;;5018419;28;19990;-26
2022/09/02 01:05:43;;;;;;;;;;;;;;;;;;5018895;28;19988;-26
2022/09/02 01:08:08;;;;;;;;;;;;;;;;;;5018528;28;19924;-26
2022/09/02 01:10:34;;;;;;;;;;;;;;;;;;5018488;28;19910;-26
2022/09/02 01:13:02;;;;;;;;;;;;;;;;;;5018402;28;20003;-26
2022/09/02 01:15:29;;;;;;;;;;;;;;;;;;5018453;28;20392;-26
2022/09/02 01:17:55;;;;;;;;;;;;;;;;;;5018364;28;19921;-26
2022/09/02 01:20:21;;;;;;;;;;;;;;;;;;5018309;28;19913;-26
2022/09/02 01:22:47;;;;;;;;;;;;;;;;;;5018142;28;20376;-26
2022/09/02 01:25:13;;;;;;;;;;;;;;;;;;5018558;28;19910;-26
2022/09/02 01:27:39;;;;;;;;;;;;;;;;;;5018476;28;19921;-26
2022/09/02 01:30:05;;;;;;;;;;;;;;;;;;5018750;28;19964;-26
2022/09/02 01:32:31;;;;;;;;;;;;;;;;;;5018057;28;19914;-26
2022/09/02 01:34:58;;;;;;;;;;;;;;;;;;5018080;28;20268;-26
2022/09/02 01:37:24;;;;;;;;;;;;;;;;;;5018017;28;19925;-26
2022/09/02 01:39:51;;;;;;;;;;;;;;;;;;5017926;28;19913;-26
2022/09/02 01:42:17;;;;;;;;;;;;;;;;;;5017885;28;20260;-26
2022/09/02 01:44:43;;;;;;;;;;;;;;;;;;5018452;28;19959;-26
2022/09/02 01:47:09;;;;;;;;;;;;;;;;;;5017837;28;19937;-26
2022/09/02 01:49:35;;;;;;;;;;;;;;;;;;5018411;28;19909;-26
2022/09/02 01:52:01;;;;;;;;;;;;;;;;;;5017929;28;20299;-26
2022/09/02 01:54:26;;;;;;;;;;;;;;;;;;5017082;28;19971;-26
2022/09/02 01:56:52;;;;;;;;;;;;;;;;;;5017602;28;20319;-26
2022/09/02 01:59:19;;;;;;;;;;;;;;;;;;5017581;28;19920;-26
2022/09/02 02:01:45;;;;;;;;;;;;;;;;;;5017685;28;20252;-26
2022/09/02 02:04:11;;;;;;;;;;;;;;;;;;5017375;28;20253;-26
2022/09/02 02:06:37;;;;;;;;;;;;;;;;;;5017499;28;19920;-26
2022/09/02 02:09:03;;;;;;;;;;;;;;;;;;5017692;28;19913;-26
2022/09/02 02:11:29;;;;;;;;;;;;;;;;;;5017650;28;20261;-26
2022/09/02 02:13:55;;;;;;;;;;;;;;;;;;5017235;28;19910;-26
2022/09/02 02:16:21;;;;;;;;;;;;;;;;;;5017837;28;19925;-26
2022/09/02 02:18:47;;;;;;;;;;;;;;;;;;5017252;28;19910;-26
2022/09/02 02:21:13;;;;;;;;;;;;;;;;;;5017701;28;19924;-26
2022/09/02 02:23:39;;;;;;;;;;;;;;;;;;5017325;28;19913;-26
2022/09/02 02:26:05;;;;;;;;;;;;;;;;;;5017130;28;19910;-26
2022/09/02 02:28:31;;;;;;;;;;;;;;;;;;5017045;28;19917;-26
2022/09/02 02:30:58;;;;;;;;;;;;;;;;;;5017331;28;19968;-26
2022/09/02 02:33:24;;;;;;;;;;;;;;;;;;5017181;28;19996;-26
2022/09/02 02:35:50;;;;;;;;;;;;;;;;;;5016966;28;20395;-26
2022/09/02 02:38:16;;;;;;;;;;;;;;;;;;5016882;28;20249;-26
2022/09/02 02:40:42;;;;;;;;;;;;;;;;;;5016773;28;19914;-26
2022/09/02 02:43:08;;;;;;;;;;;;;;;;;;5016749;28;19963;-26
2022/09/02 02:45:34;;;;;;;;;;;;;;;;;;5017631;28;19921;-26
2022/09/02 02:48:01;;;;;;;;;;;;;;;;;;5016947;28;20035;-26
2022/09/02 02:50:27;;;;;;;;;;;;;;;;;;5017308;28;20047;-26
2022/09/02 02:52:53;;;;;;;;;;;;;;;;;;5016473;28;19918;-26
2022/09/02 02:55:19;;;;;;;;;;;;;;;;;;5016514;28;19924;-26
2022/09/02 02:57:45;;;;;;;;;;;;;;;;;;5016490;28;19992;-26
2022/09/02 03:00:11;;;;;;;;;;;;;;;;;;5016400;28;19921;-26
2022/09/02 03:02:37;;;;;;;;;;;;;;;;;;5016190;28;19928;-26
2022/09/02 03:05:03;;;;;;;;;;;;;;;;;;5016555;28;20012;-26
2022/09/02 03:07:29;;;;;;;;;;;;;;;;;;5016363;28;19914;-26
2022/09/02 03:09:55;;;;;;;;;;;;;;;;;;5016337;28;19917;-26
2022/09/02 03:12:22;;;;;;;;;;;;;;;;;;5016233;28;19924;-26
2022/09/02 03:14:48;;;;;;;;;;;;;;;;;;5016776;28;19914;-26
2022/09/02 03:17:14;;;;;;;;;;;;;;;;;;5016206;28;19909;-26
2022/09/02 03:19:40;;;;;;;;;;;;;;;;;;5016115;28;19914;-26
2022/09/02 03:22:06;;;;;;;;;;;;;;;;;;5016041;28;19920;-26
2022/09/02 03:24:33;;;;;;;;;;;;;;;;;;5016641;28;19917;-26
2022/09/02 03:26:59;;;;;;;;;;;;;;;;;;5016020;28;19914;-26
2022/09/02 03:29:25;;;;;;;;;;;;;;;;;;5015997;28;20351;-26
2022/09/02 03:31:52;;;;;;;;;;;;;;;;;;5016150;28;19979;-26
2022/09/02 03:34:18;;;;;;;;;;;;;;;;;;5015859;28;19913;-26
2022/09/02 03:36:44;;;;;;;;;;;;;;;;;;5016170;28;20295;-26
2022/09/02 03:39:10;;;;;;;;;;;;;;;;;;5016374;28;19913;-26
2022/09/02 03:41:36;;;;;;;;;;;;;;;;;;5015675;28;19980;-26
2022/09/02 03:44:02;;;;;;;;;;;;;;;;;;5015616;28;19909;-26
2022/09/02 03:46:28;;;;;;;;;;;;;;;;;;5015753;28;19913;-26
2022/09/02 03:48:54;;;;;;;;;;;;;;;;;;5015876;28;19914;-26
2022/09/02 03:51:20;;;;;;;;;;;;;;;;;;5015585;28;20040;-26
2022/09/02 03:53:46;;;;;;;;;;;;;;;;;;5015748;28;19943;-26
2022/09/02 03:56:13;;;;;;;;;;;;;;;;;;5016128;28;19940;-26
2022/09/02 03:58:38;;;;;;;;;;;;;;;;;;5015345;28;20364;-27
2022/09/02 04:01:04;;;;;;;;;;;;;;;;;;5015897;28;19924;-26
2022/09/02 04:03:31;;;;;;;;;;;;;;;;;;5015066;28;20274;-26
2022/09/02 04:05:56;;;;;;;;;;;;;;;;;;5015349;28;19913;-26
2022/09/02 04:08:22;;;;;;;;;;;;;;;;;;5015237;28;19910;-27
2022/09/02 04:10:48;;;;;;;;;;;;;;;;;;5015482;28;19957;-27
2022/09/02 04:13:14;;;;;;;;;;;;;;;;;;5014164;28;20345;-26
2022/09/02 04:15:43;;;;;;;;;;;;;;;;;;5014611;28;19940;-27
2022/09/02 04:18:09;;;;;;;;;;;;;;;;;;5015378;28;20296;-27
2022/09/02 04:20:35;;;;;;;;;;;;;;;;;;5015414;28;19921;-27
2022/09/02 04:23:02;;;;;;;;;;;;;;;;;;5015142;28;19975;-27
2022/09/02 04:25:28;;;;;;;;;;;;;;;;;;5015397;28;19913;-26
2022/09/02 04:27:54;;;;;;;;;;;;;;;;;;5015385;28;19935;-27
2022/09/02 04:30:20;;;;;;;;;;;;;;;;;;5015122;28;19920;-26
2022/09/02 04:32:46;;;;;;;;;;;;;;;;;;5015370;28;19917;-27
2022/09/02 04:35:12;;;;;;;;;;;;;;;;;;5015422;28;19917;-27
2022/09/02 04:37:37;;;;;;;;;;;;;;;;;;5014979;28;20222;-27
2022/09/02 04:40:03;;;;;;;;;;;;;;;;;;5014944;28;19920;-27
2022/09/02 04:42:29;;;;;;;;;;;;;;;;;;5014821;28;19914;-27
2022/09/02 04:44:56;;;;;;;;;;;;;;;;;;5014887;28;19948;-27
2022/09/02 04:47:22;;;;;;;;;;;;;;;;;;5014897;28;20352;-27
2022/09/02 04:49:48;;;;;;;;;;;;;;;;;;5014563;28;19910;-27
2022/09/02 04:52:15;;;;;;;;;;;;;;;;;;5014744;28;20412;-26
2022/09/02 04:54:41;;;;;;;;;;;;;;;;;;5014940;28;19944;-27
2022/09/02 04:57:07;;;;;;;;;;;;;;;;;;5014606;28;20015;-27
2022/09/02 04:59:35;;;;;;;;;;;;;;;;;;5014600;28;19941;-27
2022/09/02 05:02:01;;;;;;;;;;;;;;;;;;5015271;28;19917;-27
2022/09/02 05:04:27;;;;;;;;;;;;;;;;;;5014365;28;20044;-27
2022/09/02 05:06:53;;;;;;;;;;;;;;;;;;5014484;28;20260;-27
2022/09/02 05:09:19;;;;;;;;;;;;;;;;;;5014376;28;19932;-26
2022/09/02 05:11:47;;;;;;;;;;;;;;;;;;5014656;28;19914;-26
2022/09/02 05:14:15;;;;;;;;;;;;;;;;;;5014439;28;20004;-27
2022/09/02 05:16:41;;;;;;;;;;;;;;;;;;5015115;28;19913;-27
2022/09/02 05:19:08;;;;;;;;;;;;;;;;;;5014479;28;19914;-27
2022/09/02 05:21:34;;;;;;;;;;;;;;;;;;5014383;28;19918;-27
2022/09/02 05:24:01;;;;;;;;;;;;;;;;;;5014639;28;19924;-27
2022/09/02 05:26:26;;;;;;;;;;;;;;;;;;5014685;28;20028;-27
2022/09/02 05:28:52;;;;;;;;;;;;;;;;;;5016622;28;19949;-27
2022/09/02 05:31:18;;;;;;;;;;;;;;;;;;5017790;28;20264;-27
2022/09/02 05:33:44;;;;;;;;;;;;;;;;;;5017751;28;19910;-27
2022/09/02 05:36:11;;;;;;;;;;;;;;;;;;5017730;28;19928;-27
2022/09/02 05:38:37;;;;;;;;;;;;;;;;;;5017933;28;19952;-27
2022/09/02 05:41:06;;;;;;;;;;;;;;;;;;5017608;28;19949;-27
2022/09/02 05:43:32;;;;;;;;;;;;;;;;;;5017517;28;19920;-26
2022/09/02 05:45:58;;;;;;;;;;;;;;;;;;5016675;28;19914;-27
2022/09/02 05:51:09;;;;;;;;;;;;;;;;;;5017508;28;19920;-27
2022/09/02 05:53:35;;;;;;;;;;;;;;;;;;5017319;28;19944;-27
2022/09/02 05:56:02;;;;;;;;;;;;;;;;;;5017597;28;20333;-27
2022/09/02 05:58:28;;;;;;;;;;;;;;;;;;5017327;28;19909;-27
2022/09/02 06:00:54;;;;;;;;;;;;;;;;;;5017067;28;19917;-27
2022/09/02 06:03:20;;;;;;;;;;;;;;;;;;5017145;28;19928;-27
2022/09/02 06:05:46;;;;;;;;;;;;;;;;;;5017040;28;20004;-27
2022/09/02 06:08:12;;;;;;;;;;;;;;;;;;5017293;28;19914;-28
2022/09/02 06:10:38;;;;;;;;;;;;;;;;;;5017033;28;20356;-26
2022/09/02 06:13:03;;;;;;;;;;;;;;;;;;5017370;28;19913;-27
2022/09/02 06:15:29;;;;;;;;;;;;;;;;;;5016919;28;19940;-27
2022/09/02 06:17:58;;;;;;;;;;;;;;;;;;5017095;28;19914;-27
2022/09/02 06:20:24;;;;;;;;;;;;;;;;;;5016780;28;19914;-27
2022/09/02 06:22:50;;;;;;;;;;;;;;;;;;5017304;28;19924;-27
2022/09/02 06:25:19;;;;;;;;;;;;;;;;;;5016795;28;19977;-27
2022/09/02 06:27:45;;;;;;;;;;;;;;;;;;5016644;28;19913;-27
2022/09/02 06:30:11;;;;;;;;;;;;;;;;;;5016757;28;20011;-26
2022/09/02 06:32:37;;;;;;;;;;;;;;;;;;5016926;28;20013;-27
2022/09/02 06:35:03;;;;;;;;;;;;;;;;;;5017199;28;19913;-27
2022/09/02 06:37:29;;;;;;;;;;;;;;;;;;5016513;28;19962;-27
2022/09/02 06:39:55;;;;;;;;;;;;;;;;;;5016046;28;19960;-27
2022/09/02 06:42:21;;;;;;;;;;;;;;;;;;5016403;28;20299;-27
2022/09/02 06:44:47;;;;;;;;;;;;;;;;;;5016471;28;19910;-27
2022/09/02 06:47:13;;;;;;;;;;;;;;;;;;5016405;28;19913;-27
2022/09/02 06:49:39;;;;;;;;;;;;;;;;;;5016407;28;19975;-27
2022/09/02 06:52:05;;;;;;;;;;;;;;;;;;5016208;28;19936;-27
2022/09/02 06:54:31;;;;;;;;;;;;;;;;;;5016583;28;19913;-28
2022/09/02 06:56:57;;;;;;;;;;;;;;;;;;5016114;28;20337;-28
2022/09/02 06:59:23;;;;;;;;;;;;;;;;;;5016121;28;19916;-28
2022/09/02 07:01:49;;;;;;;;;;;;;;;;;;5015924;28;20348;-27
2022/09/02 07:07:00;;;;;;;;;;;;;;;;;;5016240;28;20055;-27
2022/09/02 07:09:35;;;;;;;;;;;;;;;;;;5015941;28;19949;-27
2022/09/02 07:12:01;;;;;;;;;;;;;;;;;;5016078;28;20297;-27
2022/09/02 07:14:27;;;;;;;;;;;;;;;;;;5014717;28;19926;-27
2022/09/02 07:16:54;;;;;;;;;;;;;;;;;;5015778;28;19917;-27
2022/09/02 07:19:20;;;;;;;;;;;;;;;;;;5015719;28;19923;-27
2022/09/02 07:21:46;;;;;;;;;;;;;;;;;;5015675;28;19917;-27
2022/09/02 07:24:12;;;;;;;;;;;;;;;;;;5015872;28;19909;-26
2022/09/02 07:26:38;;;;;;;;;;;;;;;;;;5015761;28;19974;-27
2022/09/02 07:29:05;;;;;;;;;;;;;;;;;;5016223;28;19909;-27
2022/09/02 07:31:31;;;;;;;;;;;;;;;;;;5015933;28;20248;-27
2022/09/02 07:33:58;;;;;;;;;;;;;;;;;;5015929;28;19916;-26
2022/09/02 07:36:24;;;;;;;;;;;;;;;;;;5015582;28;19905;-27
2022/09/02 07:38:50;;;;;;;;;;;;;;;;;;5015490;28;20267;-27
2022/09/02 07:41:16;;;;;;;;;;;;;;;;;;5015535;28;19920;-27
2022/09/02 07:43:42;;;;;;;;;;;;;;;;;;5015655;28;20253;-27
2022/09/02 07:46:08;;;;;;;;;;;;;;;;;;5015379;28;19925;-27
2022/09/02 07:48:34;;;;;;;;;;;;;;;;;;5015309;28;19980;-26
2022/09/02 07:50:59;;;;;;;;;;;;;;;;;;5013700;28;19924;-26
2022/09/02 07:53:26;;;;;;;;;;;;;;;;;;5015905;28;20321;-27
2022/09/02 07:55:52;;;;;;;;;;;;;;;;;;5015361;28;19913;-26
2022/09/02 07:58:19;;;;;;;;;;;;;;;;;;5015882;28;20248;-26
2022/09/02 08:00:45;;;;;;;;;;;;;;;;;;5015124;28;20004;-27
2022/09/02 08:03:11;;;;;;;;;;;;;;;;;;5014911;28;19975;-26
2022/09/02 08:05:37;;;;;;;;;;;;;;;;;;5015222;28;20364;-26
2022/09/02 08:08:03;;;;;;;;;;;;;;;;;;5015110;28;19964;-26
2022/09/02 08:10:29;;;;;;;;;;;;;;;;;;5015452;28;19959;-27
2022/09/02 08:12:55;;;;;;;;;;;;;;;;;;5015080;28;19921;-27
2022/09/02 08:15:21;;;;;;;;;;;;;;;;;;5015061;28;19940;-27
2022/09/02 08:17:47;;;;;;;;;;;;;;;;;;5015107;28;19960;-27
2022/09/02 08:20:13;;;;;;;;;;;;;;;;;;5014930;28;20416;-27
2022/09/02 08:22:39;;;;;;;;;;;;;;;;;;5015312;28;19925;-27
2022/09/02 08:25:06;;;;;;;;;;;;;;;;;;5014992;28;19991;-27
2022/09/02 08:27:32;;;;;;;;;;;;;;;;;;5015240;28;19925;-27
2022/09/02 08:30:00;;;;;;;;;;;;;;;;;;5014872;28;20260;-27
2022/09/02 08:32:26;;;;;;;;;;;;;;;;;;5015046;28;19984;-27
2022/09/02 08:34:52;;;;;;;;;;;;;;;;;;5015320;28;20325;-27
2022/09/02 08:37:18;;;;;;;;;;;;;;;;;;5014778;28;20331;-27
2022/09/02 08:39:44;;;;;;;;;;;;;;;;;;5014718;28;19910;-27
2022/09/02 08:42:09;;;;;;;;;;;;;;;;;;5014728;28;19924;-27
2022/09/02 08:44:36;;;;;;;;;;;;;;;;;;5014832;28;20347;-27
2022/09/02 08:47:01;;;;;;;;;;;;;;;;;;5014959;28;19917;-27
2022/09/02 08:49:28;;;;;;;;;;;;;;;;;;5015365;28;20004;-27
2022/09/02 08:51:55;;;;;;;;;;;;;;;;;;5014742;28;19924;-27
2022/09/02 08:54:21;;;;;;;;;;;;;;;;;;5015109;28;19940;-27
2022/09/02 08:56:50;;;;;;;;;;;;;;;;;;5014947;28;19914;-27
2022/09/02 08:59:17;;;;;;;;;;;;;;;;;;5014660;28;19920;-27
2022/09/02 09:01:43;;;;;;;;;;;;;;;;;;5014613;28;20014;-27
2022/09/02 09:04:09;;;;;;;;;;;;;;;;;;5018136;28;19921;-27
2022/09/02 09:06:35;;;;;;;;;;;;;;;;;;5018340;28;19916;-27
2022/09/02 09:09:01;;;;;;;;;;;;;;;;;;5018310;28;19925;-27
2022/09/02 09:11:27;;;;;;;;;;;;;;;;;;5018257;28;20248;-27
2022/09/02 09:13:53;;;;;;;;;;;;;;;;;;5018287;28;19920;-27
2022/09/02 09:16:19;;;;;;;;;;;;;;;;;;5018523;28;20270;-27
2022/09/02 09:18:45;;;;;;;;;;;;;;;;;;5018193;28;19948;-27
2022/09/02 09:21:13;;;;;;;;;;;;;;;;;;5018045;28;19921;-27
2022/09/02 09:23:39;;;;;;;;;;;;;;;;;;5017940;28;19909;-27
2022/09/02 09:26:05;;;;;;;;;;;;;;;;;;5018322;28;20043;-27
2022/09/02 09:28:31;;;;;;;;;;;;;;;;;;5017841;28;20360;-27
2022/09/02 09:30:57;;;;;;;;;;;;;;;;;;5018377;28;19976;-27
2022/09/02 09:33:24;;;;;;;;;;;;;;;;;;5018094;28;20247;-27
2022/09/02 09:35:50;;;;;;;;;;;;;;;;;;5018066;28;19920;-27
2022/09/02 09:38:16;;;;;;;;;;;;;;;;;;5018116;28;20345;-27
2022/09/02 09:40:42;;;;;;;;;;;;;;;;;;5017719;28;19924;-27
2022/09/02 09:43:09;;;;;;;;;;;;;;;;;;5017631;28;19921;-27
2022/09/02 09:45:35;;;;;;;;;;;;;;;;;;5017608;28;20399;-27
2022/09/02 09:48:01;;;;;;;;;;;;;;;;;;5018037;28;19953;-28
2022/09/02 09:50:27;;;;;;;;;;;;;;;;;;5017937;28;20280;-26
2022/09/02 09:52:53;;;;;;;;;;;;;;;;;;5017325;28;19913;-27
2022/09/02 09:55:19;;;;;;;;;;;;;;;;;;5017894;28;20071;-27
2022/09/02 09:57:45;;;;;;;;;;;;;;;;;;5017545;28;19993;-27
2022/09/02 10:00:11;;;;;;;;;;;;;;;;;;5017362;28;20356;-27
2022/09/02 10:02:37;;;;;;;;;;;;;;;;;;5017394;28;20022;-27
2022/09/02 10:05:03;;;;;;;;;;;;;;;;;;5017382;28;19940;-27
2022/09/02 10:07:29;;;;;;;;;;;;;;;;;;5017636;28;19921;-27
2022/09/02 10:09:55;;;;;;;;;;;;;;;;;;5017843;28;19980;-28
2022/09/02 10:12:21;;;;;;;;;;;;;;;;;;5017482;28;19928;-28
2022/09/02 10:14:47;;;;;;;;;;;;;;;;;;5016982;28;19921;-27
2022/09/02 10:17:13;;;;;;;;;;;;;;;;;;5017482;28;19914;-27
2022/09/02 10:19:39;;;;;;;;;;;;;;;;;;5017214;28;19915;-27
2022/09/02 10:22:05;;;;;;;;;;;;;;;;;;5017003;28;19948;-27
2022/09/02 10:24:31;;;;;;;;;;;;;;;;;;5017381;28;20299;-28
2022/09/02 10:26:57;;;;;;;;;;;;;;;;;;5017001;28;20229;-27
2022/09/02 10:29:23;;;;;;;;;;;;;;;;;;5016909;28;19921;-27
2022/09/02 10:31:49;;;;;;;;;;;;;;;;;;5017342;28;19914;-27
2022/09/02 10:34:16;;;;;;;;;;;;;;;;;;5017034;28;19966;-27
2022/09/02 10:36:42;;;;;;;;;;;;;;;;;;5016980;28;19917;-27
2022/09/02 10:39:08;;;;;;;;;;;;;;;;;;5016649;28;20440;-27
2022/09/02 10:41:33;;;;;;;;;;;;;;;;;;5016821;28;19928;-27
2022/09/02 10:43:59;;;;;;;;;;;;;;;;;;5016673;28;20356;-26
2022/09/02 10:46:25;;;;;;;;;;;;;;;;;;5016880;28;19914;-26
2022/09/02 10:48:51;;;;;;;;;;;;;;;;;;5016583;28;20308;-27
2022/09/02 10:51:17;;;;;;;;;;;;;;;;;;5016623;28;19917;-27
2022/09/02 10:53:43;;;;;;;;;;;;;;;;;;5016447;28;19917;-27
2022/09/02 10:56:09;;;;;;;;;;;;;;;;;;5016465;28;19920;-27
2022/09/02 10:58:35;;;;;;;;;;;;;;;;;;5016706;28;19921;-26
2022/09/02 11:01:01;;;;;;;;;;;;;;;;;;5017245;28;19972;-27
2022/09/02 11:03:27;;;;;;;;;;;;;;;;;;5016042;28;19922;-27
2022/09/02 11:05:53;;;;;;;;;;;;;;;;;;5016595;28;19917;-27
2022/09/02 11:08:19;;;;;;;;;;;;;;;;;;5016595;28;20004;-26
2022/09/02 11:10:45;;;;;;;;;;;;;;;;;;5016544;28;19948;-27
2022/09/02 11:13:13;;;;;;;;;;;;;;;;;;5016190;28;19918;-27
2022/09/02 11:15:39;;;;;;;;;;;;;;;;;;5016507;28;19914;-27
2022/09/02 11:18:05;;;;;;;;;;;;;;;;;;5016424;28;20286;-27
2022/09/02 11:20:31;;;;;;;;;;;;;;;;;;5016157;28;19917;-27
2022/09/02 11:22:58;;;;;;;;;;;;;;;;;;5016059;28;20222;-28
2022/09/02 11:25:24;;;;;;;;;;;;;;;;;;5015808;28;20016;-27
2022/09/02 11:27:51;;;;;;;;;;;;;;;;;;5015730;28;19984;-27
2022/09/02 11:30:17;;;;;;;;;;;;;;;;;;5015668;28;19909;-28
2022/09/02 11:32:43;;;;;;;;;;;;;;;;;;5016005;28;19910;-27
2022/09/02 11:35:09;;;;;;;;;;;;;;;;;;5015589;28;20367;-28
2022/09/02 11:37:35;;;;;;;;;;;;;;;;;;5015898;28;20226;-27
2022/09/02 11:40:01;;;;;;;;;;;;;;;;;;5015716;28;19977;-27
2022/09/02 11:42:27;;;;;;;;;;;;;;;;;;5015655;28;19924;-27
2022/09/02 11:44:53;;;;;;;;;;;;;;;;;;5015496;28;20336;-27
2022/09/02 11:47:19;;;;;;;;;;;;;;;;;;5016163;28;19920;-27
2022/09/02 11:49:45;;;;;;;;;;;;;;;;;;5015496;28;19909;-27
2022/09/02 11:52:12;;;;;;;;;;;;;;;;;;5015663;28;19914;-26
2022/09/02 11:54:38;;;;;;;;;;;;;;;;;;5015456;28;19914;-27
2022/09/02 11:57:04;;;;;;;;;;;;;;;;;;5016233;28;19909;-27
2022/09/02 11:59:29;;;;;;;;;;;;;;;;;;5015388;28;19940;-27
2022/09/02 12:01:55;;;;;;;;;;;;;;;;;;5015763;28;19914;-27
2022/09/02 12:04:25;;;;;;;;;;;;;;;;;;5015252;28;19925;-27
2022/09/02 12:06:54;;;;;;;;;;;;;;;;;;5015680;28;19918;-27
2022/09/02 12:09:20;;;;;;;;;;;;;;;;;;5015284;28;19921;-28
2022/09/02 12:11:46;;;;;;;;;;;;;;;;;;5015170;28;19909;-27
2022/09/02 12:14:12;;;;;;;;;;;;;;;;;;5015287;28;19933;-27
2022/09/02 12:16:38;;;;;;;;;;;;;;;;;;5015394;28;19909;-27
2022/09/02 12:19:07;;;;;;;;;;;;;;;;;;5015183;28;20386;-27
2022/09/02 12:21:34;;;;;;;;;;;;;;;;;;5015151;28;19921;-27
2022/09/02 12:24:00;;;;;;;;;;;;;;;;;;5015097;28;19925;-28
2022/09/02 12:26:26;;;;;;;;;;;;;;;;;;5015280;28;19910;-28
2022/09/02 12:28:52;;;;;;;;;;;;;;;;;;5015467;28;20052;-27
2022/09/02 12:31:19;;;;;;;;;;;;;;;;;;5015445;28;19920;-28
2022/09/02 12:33:48;;;;;;;;;;;;;;;;;;5014809;28;19953;-28
2022/09/02 12:36:13;;;;;;;;;;;;;;;;;;5015267;28;19920;-28
2022/09/02 12:38:40;;;;;;;;;;;;;;;;;;5018723;28;19945;-28
2022/09/02 12:41:08;;;;;;;;;;;;;;;;;;5019200;28;19917;-28
2022/09/02 12:43:34;;;;;;;;;;;;;;;;;;5018697;28;19975;-28
2022/09/02 12:46:00;;;;;;;;;;;;;;;;;;5018758;28;19917;-28
2022/09/02 12:48:26;;;;;;;;;;;;;;;;;;5018590;28;19913;-28
2022/09/02 12:50:55;;;;;;;;;;;;;;;;;;5018994;28;19921;-28
2022/09/02 12:53:21;;;;;;;;;;;;;;;;;;5018551;28;20318;-28
2022/09/02 12:55:47;;;;;;;;;;;;;;;;;;5019229;28;20236;-28
2022/09/02 12:58:14;;;;;;;;;;;;;;;;;;5018566;28;19920;-28
2022/09/02 13:00:40;;;;;;;;;;;;;;;;;;5018458;28;19917;-28
2022/09/02 13:03:06;;;;;;;;;;;;;;;;;;5018318;28;19944;-28
2022/09/02 13:05:32;;;;;;;;;;;;;;;;;;5018975;28;19913;-28
2022/09/02 13:07:58;;;;;;;;;;;;;;;;;;5018299;28;19944;-28
2022/09/02 13:10:24;;;;;;;;;;;;;;;;;;5018849;28;19914;-26
2022/09/02 13:12:50;;;;;;;;;;;;;;;;;;5018344;28;19914;-27
2022/09/02 13:15:16;;;;;;;;;;;;;;;;;;5018596;28;19933;-27
2022/09/02 13:17:42;;;;;;;;;;;;;;;;;;5018826;28;20337;-27
2022/09/02 13:20:08;;;;;;;;;;;;;;;;;;5018084;28;19921;-26
2022/09/02 13:22:34;;;;;;;;;;;;;;;;;;5018429;28;20344;-27
2022/09/02 13:25:00;;;;;;;;;;;;;;;;;;5018669;28;19913;-27
2022/09/02 13:27:26;;;;;;;;;;;;;;;;;;5018000;28;19913;-28
2022/09/02 13:29:52;;;;;;;;;;;;;;;;;;5018060;28;20340;-27
2022/09/02 13:32:18;;;;;;;;;;;;;;;;;;5017867;28;19914;-28
2022/09/02 13:34:44;;;;;;;;;;;;;;;;;;5018054;28;19909;-27
2022/09/02 13:37:10;;;;;;;;;;;;;;;;;;5017964;28;20015;-27
2022/09/02 13:39:36;;;;;;;;;;;;;;;;;;5017983;28;19910;-28
2022/09/02 13:42:02;;;;;;;;;;;;;;;;;;5017996;28;19922;-27
2022/09/02 13:44:28;;;;;;;;;;;;;;;;;;5017931;28;19910;-27
2022/09/02 13:46:54;;;;;;;;;;;;;;;;;;5016900;28;19971;-27
2022/09/02 13:49:20;;;;;;;;;;;;;;;;;;5016799;28;19909;-27
2022/09/02 13:51:46;;;;;;;;;;;;;;;;;;5017954;28;19932;-27
2022/09/02 13:54:13;;;;;;;;;;;;;;;;;;5017724;28;19913;-27
2022/09/02 13:56:38;;;;;;;;;;;;;;;;;;5017887;28;19996;-27
2022/09/02 13:59:04;;;;;;;;;;;;;;;;;;5017822;28;20374;-27
2022/09/02 14:01:30;;;;;;;;;;;;;;;;;;5017603;28;20086;-27
2022/09/02 14:03:56;;;;;;;;;;;;;;;;;;5017089;28;20315;-27
2022/09/02 14:06:22;;;;;;;;;;;;;;;;;;5017409;28;19937;-27
2022/09/02 14:08:48;;;;;;;;;;;;;;;;;;5017351;28;19913;-27
2022/09/02 14:11:15;;;;;;;;;;;;;;;;;;5017626;28;19975;-27
2022/09/02 14:13:41;;;;;;;;;;;;;;;;;;5017096;28;19992;-27
2022/09/02 14:16:07;;;;;;;;;;;;;;;;;;5017258;28;19964;-27
2022/09/02 14:18:33;;;;;;;;;;;;;;;;;;5017247;28;20005;-28
2022/09/02 14:20:59;;;;;;;;;;;;;;;;;;5017309;28;19995;-27
2022/09/02 14:23:25;;;;;;;;;;;;;;;;;;5017279;28;19913;-27
2022/09/02 14:25:51;;;;;;;;;;;;;;;;;;5017619;28;20386;-27
2022/09/02 14:28:17;;;;;;;;;;;;;;;;;;5017208;28;19918;-27
2022/09/02 14:30:43;;;;;;;;;;;;;;;;;;5017130;28;20302;-27
2022/09/02 14:33:09;;;;;;;;;;;;;;;;;;5016809;28;20276;-27
2022/09/02 14:35:35;;;;;;;;;;;;;;;;;;5016797;28;19921;-27
2022/09/02 14:38:01;;;;;;;;;;;;;;;;;;5017047;28;19913;-27
2022/09/02 14:40:27;;;;;;;;;;;;;;;;;;5016963;28;19940;-27
2022/09/02 14:42:53;;;;;;;;;;;;;;;;;;5017217;28;20328;-27
2022/09/02 14:45:19;;;;;;;;;;;;;;;;;;5016857;28;19914;-27
2022/09/02 14:47:46;;;;;;;;;;;;;;;;;;5016584;28;20312;-27
2022/09/02 14:50:17;;;;;;;;;;;;;;;;;;5016541;28;19918;-27
2022/09/02 14:52:43;;;;;;;;;;;;;;;;;;5016434;28;19924;-28
2022/09/02 14:55:09;;;;;;;;;;;;;;;;;;5016730;28;19910;-27
2022/09/02 14:57:37;;;;;;;;;;;;;;;;;;5015480;28;19914;-26
2022/09/02 15:00:04;;;;;;;;;;;;;;;;;;5015955;28;19970;-27
2022/09/02 15:02:31;;;;;;;;;;;;;;;;;;5016416;28;19920;-27
2022/09/02 15:04:57;;;;;;;;;;;;;;;;;;5015406;28;19924;-27
2022/09/02 15:07:23;;;;;;;;;;;;;;;;;;5016254;28;19909;-27
2022/09/02 15:09:52;;;;;;;;;;;;;;;;;;5016186;28;19914;-27
2022/09/02 15:12:18;;;;;;;;;;;;;;;;;;5016115;28;19920;-27
2022/09/02 15:14:44;;;;;;;;;;;;;;;;;;5016074;28;19975;-27
2022/09/02 15:17:10;;;;;;;;;;;;;;;;;;5016334;28;19910;-27
2022/09/02 15:19:36;;;;;;;;;;;;;;;;;;5016327;28;19914;-27
2022/09/02 15:22:02;;;;;;;;;;;;;;;;;;5015789;28;20384;-27
2022/09/02 15:24:28;;;;;;;;;;;;;;;;;;5015017;28;19996;-27
2022/09/02 15:26:54;;;;;;;;;;;;;;;;;;5016371;28;19913;-27
2022/09/02 15:29:20;;;;;;;;;;;;;;;;;;5015830;28;19914;-27
2022/09/02 15:31:46;;;;;;;;;;;;;;;;;;5015734;28;19910;-26
2022/09/02 15:34:12;;;;;;;;;;;;;;;;;;5016300;28;19914;-26
2022/09/02 15:36:38;;;;;;;;;;;;;;;;;;5015653;28;20004;-27
2022/09/02 15:39:04;;;;;;;;;;;;;;;;;;5015932;28;19910;-27
2022/09/02 15:41:33;;;;;;;;;;;;;;;;;;5015858;28;19928;-27
2022/09/02 15:43:59;;;;;;;;;;;;;;;;;;5015825;28;19920;-27
2022/09/02 15:46:25;;;;;;;;;;;;;;;;;;5015561;28;20013;-27
2022/09/02 15:48:52;;;;;;;;;;;;;;;;;;5015478;28;20004;-28
2022/09/02 15:51:17;;;;;;;;;;;;;;;;;;5015511;28;20256;-27
2022/09/02 15:53:44;;;;;;;;;;;;;;;;;;5015388;28;19909;-28
2022/09/02 15:56:10;;;;;;;;;;;;;;;;;;5015471;28;20307;-28
2022/09/02 15:58:36;;;;;;;;;;;;;;;;;;5015567;28;19910;-27
2022/09/02 16:01:01;;;;;;;;;;;;;;;;;;5015256;28;19921;-27
2022/09/02 16:03:28;;;;;;;;;;;;;;;;;;5015047;28;20371;-27
2022/09/02 16:05:55;;;;;;;;;;;;;;;;;;5015568;28;19914;-27
2022/09/02 16:08:21;;;;;;;;;;;;;;;;;;5015713;28;20217;-27
2022/09/02 16:10:47;;;;;;;;;;;;;;;;;;5015204;28;19977;-27
2022/09/02 16:13:13;;;;;;;;;;;;;;;;;;5014355;28;19913;-27
2022/09/02 16:15:39;;;;;;;;;;;;;;;;;;5015172;28;19910;-27
2022/09/02 16:18:05;;;;;;;;;;;;;;;;;;5015125;28;19924;-26
2022/09/02 16:20:31;;;;;;;;;;;;;;;;;;5015288;28;19924;-27
2022/09/02 16:22:57;;;;;;;;;;;;;;;;;;5014934;28;19921;-27
2022/09/02 16:25:24;;;;;;;;;;;;;;;;;;5015104;28;19914;-26
2022/09/02 16:27:54;;;;;;;;;;;;;;;;;;5015597;28;20249;-27
2022/09/02 16:30:20;;;;;;;;;;;;;;;;;;5015001;28;19917;-27
2022/09/02 16:32:46;;;;;;;;;;;;;;;;;;5014879;28;19913;-27
2022/09/02 16:35:12;;;;;;;;;;;;;;;;;;5014946;28;19910;-27
2022/09/02 16:37:38;;;;;;;;;;;;;;;;;;5014846;28;19964;-27
2022/09/02 16:40:04;;;;;;;;;;;;;;;;;;5015008;28;19909;-27
2022/09/02 16:42:30;;;;;;;;;;;;;;;;;;5014808;28;19913;-27
2022/09/02 16:44:56;;;;;;;;;;;;;;;;;;5015113;28;19909;-27